sensor_id;sensor_type;location;lat;lon;timestamp;P1;durP1;ratioP1;P2;durP2;ratioP2
42132;SDS011;70517;48.192;16.278;2023-08-06T00:00:20;0.20;;;0.20;;
42132;SDS011;70517;48.192;16.278;2023-08-06T00:03:20;0.25;;;0.10;;
42132;SDS011;70517;48.192;16.278;2023-08-06T00:06:20;0.10;;;0.10;;
42132;SDS011;70517;48.192;16.278;2023-08-06T00:09:21;0.10;;;0.10;;
42132;SDS011;70517;48.192;16.278;2023-08-06T00:12:21;0.20;;;0.20;;
42132;SDS011;70517;48.192;16.278;2023-08-06T00:15:21;0.20;;;0.20;;
42132;SDS011;70517;48.192;16.278;2023-08-06T00:18:22;0.20;;;0.20;;
42132;SDS011;70517;48.192;16.278;2023-08-06T00:21:22;0.43;;;0.23;;
42132;SDS011;70517;48.192;16.278;2023-08-06T00:24:22;0.30;;;0.30;;
42132;SDS011;70517;48.192;16.278;2023-08-06T00:27:22;0.20;;;0.20;;
42132;SDS011;70517;48.192;16.278;2023-08-06T00:30:23;0.20;;;0.20;;
42132;SDS011;70517;48.192;16.278;2023-08-06T00:33:23;0.20;;;0.20;;
42132;SDS011;70517;48.192;16.278;2023-08-06T00:36:23;0.20;;;0.20;;
42132;SDS011;70517;48.192;16.278;2023-08-06T00:39:23;0.20;;;0.20;;
42132;SDS011;70517;48.192;16.278;2023-08-06T00:42:24;0.20;;;0.20;;
42132;SDS011;70517;48.192;16.278;2023-08-06T00:45:24;0.20;;;0.20;;
42132;SDS011;70517;48.192;16.278;2023-08-06T00:48:25;0.15;;;0.15;;
42132;SDS011;70517;48.192;16.278;2023-08-06T00:51:25;0.20;;;0.20;;
42132;SDS011;70517;48.192;16.278;2023-08-06T00:54:25;0.20;;;0.20;;
42132;SDS011;70517;48.192;16.278;2023-08-06T00:57:26;0.20;;;0.20;;
42132;SDS011;70517;48.192;16.278;2023-08-06T01:00:26;0.10;;;0.10;;
42132;SDS011;70517;48.192;16.278;2023-08-06T01:03:27;0.10;;;0.10;;
42132;SDS011;70517;48.192;16.278;2023-08-06T01:06:32;0.10;;;0.10;;
42132;SDS011;70517;48.192;16.278;2023-08-06T01:16:25;0.10;;;0.10;;
42132;SDS011;70517;48.192;16.278;2023-08-06T01:19:25;0.20;;;0.20;;
42132;SDS011;70517;48.192;16.278;2023-08-06T01:22:26;0.17;;;0.17;;
42132;SDS011;70517;48.192;16.278;2023-08-06T01:25:28;0.20;;;0.20;;
42132;SDS011;70517;48.192;16.278;2023-08-06T01:31:50;0.10;;;0.10;;
42132;SDS011;70517;48.192;16.278;2023-08-06T01:34:51;0.20;;;0.20;;
42132;SDS011;70517;48.192;16.278;2023-08-06T01:37:52;0.20;;;0.20;;
42132;SDS011;70517;48.192;16.278;2023-08-06T01:40:52;0.20;;;0.20;;
42132;SDS011;70517;48.192;16.278;2023-08-06T01:43:52;0.20;;;0.20;;
42132;SDS011;70517;48.192;16.278;2023-08-06T01:46:52;0.30;;;0.30;;
42132;SDS011;70517;48.192;16.278;2023-08-06T01:49:52;0.20;;;0.20;;
42132;SDS011;70517;48.192;16.278;2023-08-06T01:52:53;0.30;;;0.30;;
42132;SDS011;70517;48.192;16.278;2023-08-06T01:55:53;0.30;;;0.30;;
42132;SDS011;70517;48.192;16.278;2023-08-06T01:58:53;0.20;;;0.20;;
42132;SDS011;70517;48.192;16.278;2023-08-06T02:01:53;0.20;;;0.20;;
42132;SDS011;70517;48.192;16.278;2023-08-06T02:04:54;0.50;;;0.50;;
42132;SDS011;70517;48.192;16.278;2023-08-06T02:07:54;0.43;;;0.40;;
42132;SDS011;70517;48.192;16.278;2023-08-06T02:10:55;0.40;;;0.40;;
42132;SDS011;70517;48.192;16.278;2023-08-06T02:13:55;0.70;;;0.47;;
42132;SDS011;70517;48.192;16.278;2023-08-06T02:16:55;0.40;;;0.40;;
42132;SDS011;70517;48.192;16.278;2023-08-06T02:19:55;0.50;;;0.50;;
42132;SDS011;70517;48.192;16.278;2023-08-06T02:22:56;0.40;;;0.40;;
42132;SDS011;70517;48.192;16.278;2023-08-06T02:25:56;0.40;;;0.40;;
42132;SDS011;70517;48.192;16.278;2023-08-06T02:28:57;0.40;;;0.40;;
42132;SDS011;70517;48.192;16.278;2023-08-06T02:31:57;0.40;;;0.40;;
42132;SDS011;70517;48.192;16.278;2023-08-06T02:34:57;0.50;;;0.50;;
42132;SDS011;70517;48.192;16.278;2023-08-06T02:37:57;0.50;;;0.50;;
42132;SDS011;70517;48.192;16.278;2023-08-06T02:40:58;0.60;;;0.50;;
42132;SDS011;70517;48.192;16.278;2023-08-06T02:43:58;0.60;;;0.50;;
42132;SDS011;70517;48.192;16.278;2023-08-06T02:46:58;0.50;;;0.43;;
42132;SDS011;70517;48.192;16.278;2023-08-06T02:49:58;0.50;;;0.50;;
42132;SDS011;70517;48.192;16.278;2023-08-06T02:52:58;0.70;;;0.60;;
42132;SDS011;70517;48.192;16.278;2023-08-06T02:55:59;0.50;;;0.50;;
42132;SDS011;70517;48.192;16.278;2023-08-06T02:58:59;0.50;;;0.50;;
42132;SDS011;70517;48.192;16.278;2023-08-06T03:02:00;0.43;;;0.43;;
42132;SDS011;70517;48.192;16.278;2023-08-06T03:05:00;0.50;;;0.50;;
42132;SDS011;70517;48.192;16.278;2023-08-06T03:08:00;0.63;;;0.60;;
42132;SDS011;70517;48.192;16.278;2023-08-06T03:11:00;0.70;;;0.70;;
42132;SDS011;70517;48.192;16.278;2023-08-06T03:14:00;0.40;;;0.40;;
42132;SDS011;70517;48.192;16.278;2023-08-06T03:17:01;1.93;;;0.73;;
42132;SDS011;70517;48.192;16.278;2023-08-06T03:20:01;0.70;;;0.70;;
42132;SDS011;70517;48.192;16.278;2023-08-06T03:23:01;0.50;;;0.50;;
42132;SDS011;70517;48.192;16.278;2023-08-06T03:26:02;0.73;;;0.70;;
42132;SDS011;70517;48.192;16.278;2023-08-06T03:29:02;2.05;;;0.80;;
42132;SDS011;70517;48.192;16.278;2023-08-06T03:32:03;0.80;;;0.70;;
42132;SDS011;70517;48.192;16.278;2023-08-06T03:35:03;0.70;;;0.70;;
42132;SDS011;70517;48.192;16.278;2023-08-06T03:38:03;0.80;;;0.80;;
42132;SDS011;70517;48.192;16.278;2023-08-06T03:41:04;0.70;;;0.70;;
42132;SDS011;70517;48.192;16.278;2023-08-06T03:44:04;0.77;;;0.77;;
42132;SDS011;70517;48.192;16.278;2023-08-06T03:47:05;0.95;;;0.85;;
42132;SDS011;70517;48.192;16.278;2023-08-06T03:50:05;0.80;;;0.80;;
42132;SDS011;70517;48.192;16.278;2023-08-06T03:53:05;1.10;;;1.00;;
42132;SDS011;70517;48.192;16.278;2023-08-06T03:56:06;1.57;;;0.90;;
42132;SDS011;70517;48.192;16.278;2023-08-06T03:59:06;1.57;;;1.20;;
42132;SDS011;70517;48.192;16.278;2023-08-06T04:02:06;1.10;;;1.10;;
42132;SDS011;70517;48.192;16.278;2023-08-06T04:05:06;1.07;;;1.00;;
42132;SDS011;70517;48.192;16.278;2023-08-06T04:08:07;1.10;;;1.00;;
42132;SDS011;70517;48.192;16.278;2023-08-06T04:11:07;1.20;;;1.10;;
42132;SDS011;70517;48.192;16.278;2023-08-06T04:14:08;0.95;;;0.95;;
42132;SDS011;70517;48.192;16.278;2023-08-06T04:17:08;1.33;;;1.20;;
42132;SDS011;70517;48.192;16.278;2023-08-06T04:20:08;1.20;;;1.10;;
42132;SDS011;70517;48.192;16.278;2023-08-06T04:23:08;1.30;;;1.20;;
42132;SDS011;70517;48.192;16.278;2023-08-06T04:26:09;1.53;;;1.10;;
42132;SDS011;70517;48.192;16.278;2023-08-06T04:29:09;1.40;;;1.27;;
42132;SDS011;70517;48.192;16.278;2023-08-06T04:32:09;1.40;;;1.30;;
42132;SDS011;70517;48.192;16.278;2023-08-06T04:35:10;1.60;;;1.50;;
42132;SDS011;70517;48.192;16.278;2023-08-06T04:38:10;1.53;;;1.43;;
42132;SDS011;70517;48.192;16.278;2023-08-06T04:41:11;1.70;;;1.60;;
42132;SDS011;70517;48.192;16.278;2023-08-06T04:44:11;1.60;;;1.50;;
42132;SDS011;70517;48.192;16.278;2023-08-06T04:47:11;1.23;;;1.17;;
42132;SDS011;70517;48.192;16.278;2023-08-06T04:50:11;1.97;;;1.77;;
42132;SDS011;70517;48.192;16.278;2023-08-06T04:53:12;1.60;;;1.47;;
42132;SDS011;70517;48.192;16.278;2023-08-06T04:56:12;1.70;;;1.60;;
42132;SDS011;70517;48.192;16.278;2023-08-06T04:59:12;1.40;;;1.30;;
42132;SDS011;70517;48.192;16.278;2023-08-06T05:02:13;1.30;;;1.20;;
42132;SDS011;70517;48.192;16.278;2023-08-06T05:05:13;1.40;;;1.30;;
42132;SDS011;70517;48.192;16.278;2023-08-06T05:08:13;1.60;;;1.50;;
42132;SDS011;70517;48.192;16.278;2023-08-06T05:11:14;1.63;;;1.52;;
42132;SDS011;70517;48.192;16.278;2023-08-06T05:14:15;1.77;;;1.60;;
42132;SDS011;70517;48.192;16.278;2023-08-06T05:17:15;1.50;;;1.40;;
42132;SDS011;70517;48.192;16.278;2023-08-06T05:20:15;1.93;;;1.40;;
42132;SDS011;70517;48.192;16.278;2023-08-06T05:23:16;1.75;;;1.50;;
42132;SDS011;70517;48.192;16.278;2023-08-06T05:26:16;1.60;;;1.50;;
42132;SDS011;70517;48.192;16.278;2023-08-06T05:29:19;2.08;;;1.30;;
42132;SDS011;70517;48.192;16.278;2023-08-06T05:32:19;1.53;;;1.30;;
42132;SDS011;70517;48.192;16.278;2023-08-06T05:35:19;2.70;;;1.90;;
42132;SDS011;70517;48.192;16.278;2023-08-06T05:38:20;2.63;;;2.42;;
42132;SDS011;70517;48.192;16.278;2023-08-06T05:41:20;2.17;;;1.97;;
42132;SDS011;70517;48.192;16.278;2023-08-06T05:44:20;2.23;;;2.03;;
42132;SDS011;70517;48.192;16.278;2023-08-06T05:47:21;2.58;;;2.38;;
42132;SDS011;70517;48.192;16.278;2023-08-06T05:50:21;2.27;;;1.87;;
42132;SDS011;70517;48.192;16.278;2023-08-06T05:53:21;1.80;;;1.70;;
42132;SDS011;70517;48.192;16.278;2023-08-06T05:56:21;1.90;;;1.47;;
42132;SDS011;70517;48.192;16.278;2023-08-06T05:59:22;1.70;;;1.60;;
42132;SDS011;70517;48.192;16.278;2023-08-06T06:02:22;1.60;;;1.50;;
42132;SDS011;70517;48.192;16.278;2023-08-06T06:05:22;1.90;;;1.67;;
42132;SDS011;70517;48.192;16.278;2023-08-06T06:08:22;1.80;;;1.70;;
42132;SDS011;70517;48.192;16.278;2023-08-06T06:11:22;1.90;;;1.80;;
42132;SDS011;70517;48.192;16.278;2023-08-06T06:14:23;2.00;;;1.90;;
42132;SDS011;70517;48.192;16.278;2023-08-06T06:17:23;1.70;;;1.60;;
42132;SDS011;70517;48.192;16.278;2023-08-06T06:20:23;1.37;;;1.27;;
42132;SDS011;70517;48.192;16.278;2023-08-06T06:23:23;1.60;;;1.50;;
42132;SDS011;70517;48.192;16.278;2023-08-06T06:26:24;1.57;;;1.30;;
42132;SDS011;70517;48.192;16.278;2023-08-06T06:29:24;1.80;;;1.50;;
42132;SDS011;70517;48.192;16.278;2023-08-06T06:32:24;1.70;;;1.50;;
42132;SDS011;70517;48.192;16.278;2023-08-06T06:35:25;2.40;;;2.20;;
42132;SDS011;70517;48.192;16.278;2023-08-06T06:38:25;2.40;;;2.20;;
42132;SDS011;70517;48.192;16.278;2023-08-06T06:41:25;2.00;;;1.90;;
42132;SDS011;70517;48.192;16.278;2023-08-06T06:44:26;1.95;;;1.85;;
42132;SDS011;70517;48.192;16.278;2023-08-06T06:47:26;1.60;;;1.50;;
42132;SDS011;70517;48.192;16.278;2023-08-06T06:50:26;2.13;;;1.93;;
42132;SDS011;70517;48.192;16.278;2023-08-06T06:53:27;2.05;;;1.85;;
42132;SDS011;70517;48.192;16.278;2023-08-06T06:56:27;2.10;;;1.90;;
42132;SDS011;70517;48.192;16.278;2023-08-06T06:59:27;1.40;;;1.30;;
42132;SDS011;70517;48.192;16.278;2023-08-06T07:02:28;2.10;;;2.00;;
42132;SDS011;70517;48.192;16.278;2023-08-06T07:05:28;1.73;;;1.63;;
42132;SDS011;70517;48.192;16.278;2023-08-06T07:08:28;1.70;;;1.60;;
42132;SDS011;70517;48.192;16.278;2023-08-06T07:11:28;1.50;;;1.40;;
42132;SDS011;70517;48.192;16.278;2023-08-06T07:14:28;1.27;;;1.23;;
42132;SDS011;70517;48.192;16.278;2023-08-06T07:17:29;1.53;;;1.43;;
42132;SDS011;70517;48.192;16.278;2023-08-06T07:20:29;1.50;;;1.40;;
42132;SDS011;70517;48.192;16.278;2023-08-06T07:23:31;1.48;;;1.38;;
42132;SDS011;70517;48.192;16.278;2023-08-06T07:26:31;1.40;;;1.30;;
42132;SDS011;70517;48.192;16.278;2023-08-06T07:32:32;1.75;;;1.65;;
42132;SDS011;70517;48.192;16.278;2023-08-06T07:38:32;1.63;;;1.52;;
42132;SDS011;70517;48.192;16.278;2023-08-06T07:41:32;2.00;;;1.83;;
42132;SDS011;70517;48.192;16.278;2023-08-06T07:47:33;1.77;;;1.67;;
42132;SDS011;70517;48.192;16.278;2023-08-06T07:50:33;2.90;;;2.67;;
42132;SDS011;70517;48.192;16.278;2023-08-06T07:53:33;2.67;;;2.43;;
42132;SDS011;70517;48.192;16.278;2023-08-06T07:56:33;1.93;;;1.70;;
42132;SDS011;70517;48.192;16.278;2023-08-06T07:59:34;3.60;;;1.70;;
42132;SDS011;70517;48.192;16.278;2023-08-06T08:02:34;1.50;;;1.40;;
42132;SDS011;70517;48.192;16.278;2023-08-06T08:08:34;1.33;;;1.23;;
42132;SDS011;70517;48.192;16.278;2023-08-06T08:11:38;1.40;;;1.30;;
42132;SDS011;70517;48.192;16.278;2023-08-06T08:14:38;1.70;;;1.60;;
42132;SDS011;70517;48.192;16.278;2023-08-06T08:20:39;2.00;;;1.77;;
42132;SDS011;70517;48.192;16.278;2023-08-06T08:26:39;1.50;;;1.40;;
42132;SDS011;70517;48.192;16.278;2023-08-06T08:32:39;1.65;;;1.20;;
42132;SDS011;70517;48.192;16.278;2023-08-06T08:35:40;1.57;;;1.47;;
42132;SDS011;70517;48.192;16.278;2023-08-06T08:41:41;3.90;;;3.17;;
42132;SDS011;70517;48.192;16.278;2023-08-06T08:47:42;2.42;;;2.22;;
42132;SDS011;70517;48.192;16.278;2023-08-06T08:53:43;1.75;;;1.65;;
42132;SDS011;70517;48.192;16.278;2023-08-06T08:56:44;1.92;;;1.77;;
42132;SDS011;70517;48.192;16.278;2023-08-06T08:59:44;1.63;;;1.53;;
42132;SDS011;70517;48.192;16.278;2023-08-06T09:02:44;3.03;;;1.80;;
42132;SDS011;70517;48.192;16.278;2023-08-06T09:05:45;3.95;;;2.60;;
42132;SDS011;70517;48.192;16.278;2023-08-06T09:08:51;3.25;;;2.80;;
42132;SDS011;70517;48.192;16.278;2023-08-06T09:11:54;2.53;;;2.33;;
42132;SDS011;70517;48.192;16.278;2023-08-06T09:14:55;1.73;;;1.63;;
42132;SDS011;70517;48.192;16.278;2023-08-06T09:17:55;2.30;;;2.10;;
42132;SDS011;70517;48.192;16.278;2023-08-06T09:20:56;1.90;;;1.77;;
42132;SDS011;70517;48.192;16.278;2023-08-06T09:23:56;2.35;;;2.15;;
42132;SDS011;70517;48.192;16.278;2023-08-06T09:26:58;2.38;;;2.17;;
42132;SDS011;70517;48.192;16.278;2023-08-06T09:30:03;2.38;;;2.17;;
42132;SDS011;70517;48.192;16.278;2023-08-06T09:33:07;2.03;;;1.92;;
42132;SDS011;70517;48.192;16.278;2023-08-06T09:36:10;2.13;;;2.00;;
42132;SDS011;70517;48.192;16.278;2023-08-06T09:39:17;2.75;;;2.13;;
42132;SDS011;70517;48.192;16.278;2023-08-06T09:42:18;2.75;;;2.55;;
42132;SDS011;70517;48.192;16.278;2023-08-06T09:45:18;5.40;;;2.30;;
42132;SDS011;70517;48.192;16.278;2023-08-06T09:48:18;3.20;;;2.93;;
42132;SDS011;70517;48.192;16.278;2023-08-06T09:51:19;4.10;;;3.80;;
42132;SDS011;70517;48.192;16.278;2023-08-06T09:54:19;3.00;;;2.80;;
42132;SDS011;70517;48.192;16.278;2023-08-06T09:57:19;2.73;;;2.53;;
42132;SDS011;70517;48.192;16.278;2023-08-06T10:00:20;2.83;;;2.63;;
42132;SDS011;70517;48.192;16.278;2023-08-06T10:03:20;5.03;;;4.53;;
42132;SDS011;70517;48.192;16.278;2023-08-06T10:06:21;4.80;;;4.37;;
42132;SDS011;70517;48.192;16.278;2023-08-06T10:09:22;4.05;;;3.63;;
42132;SDS011;70517;48.192;16.278;2023-08-06T10:12:24;3.20;;;2.90;;
42132;SDS011;70517;48.192;16.278;2023-08-06T10:15:25;3.25;;;3.05;;
42132;SDS011;70517;48.192;16.278;2023-08-06T10:18:26;3.50;;;3.20;;
42132;SDS011;70517;48.192;16.278;2023-08-06T10:21:27;3.20;;;2.80;;
42132;SDS011;70517;48.192;16.278;2023-08-06T10:24:28;3.03;;;2.72;;
42132;SDS011;70517;48.192;16.278;2023-08-06T10:30:48;3.40;;;2.78;;
42132;SDS011;70517;48.192;16.278;2023-08-06T10:33:48;3.13;;;2.93;;
42132;SDS011;70517;48.192;16.278;2023-08-06T10:36:48;3.37;;;3.17;;
42132;SDS011;70517;48.192;16.278;2023-08-06T10:39:49;3.00;;;2.70;;
42132;SDS011;70517;48.192;16.278;2023-08-06T10:42:50;2.65;;;2.45;;
42132;SDS011;70517;48.192;16.278;2023-08-06T10:45:51;2.87;;;2.67;;
42132;SDS011;70517;48.192;16.278;2023-08-06T10:48:51;2.80;;;2.60;;
42132;SDS011;70517;48.192;16.278;2023-08-06T10:51:52;3.08;;;2.70;;
42132;SDS011;70517;48.192;16.278;2023-08-06T10:54:54;2.55;;;2.35;;
42132;SDS011;70517;48.192;16.278;2023-08-06T10:57:55;2.42;;;2.22;;
42132;SDS011;70517;48.192;16.278;2023-08-06T11:00:55;2.75;;;2.55;;
42132;SDS011;70517;48.192;16.278;2023-08-06T11:03:56;2.38;;;1.80;;
42132;SDS011;70517;48.192;16.278;2023-08-06T11:06:56;2.20;;;2.00;;
42132;SDS011;70517;48.192;16.278;2023-08-06T11:13:00;2.17;;;1.98;;
42132;SDS011;70517;48.192;16.278;2023-08-06T11:16:00;1.77;;;1.67;;
42132;SDS011;70517;48.192;16.278;2023-08-06T11:19:01;2.00;;;1.80;;
42132;SDS011;70517;48.192;16.278;2023-08-06T11:22:01;1.90;;;1.70;;
42132;SDS011;70517;48.192;16.278;2023-08-06T11:25:02;1.75;;;1.65;;
42132;SDS011;70517;48.192;16.278;2023-08-06T11:28:02;1.80;;;1.70;;
42132;SDS011;70517;48.192;16.278;2023-08-06T11:31:02;2.45;;;1.98;;
42132;SDS011;70517;48.192;16.278;2023-08-06T11:37:04;1.60;;;1.50;;
42132;SDS011;70517;48.192;16.278;2023-08-06T11:40:09;2.28;;;1.90;;
42132;SDS011;70517;48.192;16.278;2023-08-06T11:43:14;1.70;;;1.60;;
42132;SDS011;70517;48.192;16.278;2023-08-06T11:46:14;2.00;;;1.80;;
42132;SDS011;70517;48.192;16.278;2023-08-06T11:49:14;4.07;;;2.00;;
42132;SDS011;70517;48.192;16.278;2023-08-06T11:52:21;2.20;;;2.00;;
42132;SDS011;70517;48.192;16.278;2023-08-06T11:55:23;1.83;;;1.73;;
42132;SDS011;70517;48.192;16.278;2023-08-06T11:58:23;2.13;;;1.92;;
42132;SDS011;70517;48.192;16.278;2023-08-06T12:01:25;2.63;;;1.87;;
42132;SDS011;70517;48.192;16.278;2023-08-06T12:04:25;2.83;;;2.25;;
42132;SDS011;70517;48.192;16.278;2023-08-06T12:07:26;2.70;;;2.13;;
42132;SDS011;70517;48.192;16.278;2023-08-06T12:10:27;2.40;;;2.20;;
42132;SDS011;70517;48.192;16.278;2023-08-06T12:16:28;2.03;;;1.93;;
42132;SDS011;70517;48.192;16.278;2023-08-06T12:19:28;2.20;;;2.00;;
42132;SDS011;70517;48.192;16.278;2023-08-06T12:22:30;2.28;;;2.08;;
42132;SDS011;70517;48.192;16.278;2023-08-06T12:25:35;2.28;;;2.08;;
42132;SDS011;70517;48.192;16.278;2023-08-06T12:28:37;3.15;;;2.40;;
42132;SDS011;70517;48.192;16.278;2023-08-06T12:31:37;2.53;;;2.33;;
42132;SDS011;70517;48.192;16.278;2023-08-06T12:34:38;3.23;;;2.30;;
42132;SDS011;70517;48.192;16.278;2023-08-06T12:40:39;2.20;;;2.00;;
42132;SDS011;70517;48.192;16.278;2023-08-06T12:43:39;2.73;;;2.20;;
42132;SDS011;70517;48.192;16.278;2023-08-06T12:46:39;2.73;;;2.20;;
42132;SDS011;70517;48.192;16.278;2023-08-06T12:49:40;2.53;;;2.33;;
42132;SDS011;70517;48.192;16.278;2023-08-06T12:52:40;2.58;;;2.38;;
42132;SDS011;70517;48.192;16.278;2023-08-06T12:55:41;3.10;;;2.37;;
42132;SDS011;70517;48.192;16.278;2023-08-06T12:58:41;3.55;;;2.95;;
42132;SDS011;70517;48.192;16.278;2023-08-06T13:01:42;3.08;;;2.63;;
42132;SDS011;70517;48.192;16.278;2023-08-06T13:04:42;4.15;;;3.00;;
42132;SDS011;70517;48.192;16.278;2023-08-06T13:07:43;3.53;;;2.90;;
42132;SDS011;70517;48.192;16.278;2023-08-06T13:10:43;3.43;;;2.80;;
42132;SDS011;70517;48.192;16.278;2023-08-06T13:16:44;2.17;;;2.08;;
42132;SDS011;70517;48.192;16.278;2023-08-06T13:19:44;2.97;;;2.67;;
42132;SDS011;70517;48.192;16.278;2023-08-06T13:22:45;2.85;;;2.53;;
42132;SDS011;70517;48.192;16.278;2023-08-06T13:25:46;2.38;;;2.17;;
42132;SDS011;70517;48.192;16.278;2023-08-06T13:28:46;2.33;;;2.17;;
42132;SDS011;70517;48.192;16.278;2023-08-06T13:31:47;2.03;;;1.92;;
42132;SDS011;70517;48.192;16.278;2023-08-06T13:34:48;2.33;;;2.20;;
42132;SDS011;70517;48.192;16.278;2023-08-06T13:40:48;2.13;;;1.92;;
42132;SDS011;70517;48.192;16.278;2023-08-06T13:46:48;1.90;;;1.70;;
42132;SDS011;70517;48.192;16.278;2023-08-06T13:52:49;1.35;;;1.25;;
42132;SDS011;70517;48.192;16.278;2023-08-06T13:55:49;1.83;;;1.70;;
42132;SDS011;70517;48.192;16.278;2023-08-06T13:58:49;2.58;;;1.55;;
42132;SDS011;70517;48.192;16.278;2023-08-06T14:04:50;1.08;;;1.00;;
42132;SDS011;70517;48.192;16.278;2023-08-06T14:07:50;1.40;;;1.00;;
42132;SDS011;70517;48.192;16.278;2023-08-06T14:13:50;0.70;;;0.70;;
42132;SDS011;70517;48.192;16.278;2023-08-06T14:19:50;0.80;;;0.80;;
42132;SDS011;70517;48.192;16.278;2023-08-06T14:22:51;1.27;;;0.60;;
42132;SDS011;70517;48.192;16.278;2023-08-06T14:28:51;1.13;;;1.00;;
42132;SDS011;70517;48.192;16.278;2023-08-06T14:31:54;1.52;;;1.30;;
42132;SDS011;70517;48.192;16.278;2023-08-06T14:34:54;1.23;;;0.93;;
42132;SDS011;70517;48.192;16.278;2023-08-06T14:37:54;0.70;;;0.70;;
42132;SDS011;70517;48.192;16.278;2023-08-06T14:40:55;2.83;;;0.50;;
42132;SDS011;70517;48.192;16.278;2023-08-06T14:46:55;1.58;;;0.45;;
42132;SDS011;70517;48.192;16.278;2023-08-06T14:49:55;0.50;;;0.50;;
42132;SDS011;70517;48.192;16.278;2023-08-06T14:52:56;0.70;;;0.50;;
42132;SDS011;70517;48.192;16.278;2023-08-06T14:55:56;3.53;;;0.50;;
42132;SDS011;70517;48.192;16.278;2023-08-06T14:58:56;0.80;;;0.43;;
42132;SDS011;70517;48.192;16.278;2023-08-06T15:01:56;0.47;;;0.47;;
42132;SDS011;70517;48.192;16.278;2023-08-06T15:04:57;0.43;;;0.33;;
42132;SDS011;70517;48.192;16.278;2023-08-06T15:07:57;0.50;;;0.30;;
42132;SDS011;70517;48.192;16.278;2023-08-06T15:10:57;0.57;;;0.43;;
42132;SDS011;70517;48.192;16.278;2023-08-06T15:13:58;1.17;;;0.70;;
42132;SDS011;70517;48.192;16.278;2023-08-06T15:17:00;0.75;;;0.75;;
42132;SDS011;70517;48.192;16.278;2023-08-06T15:20:01;1.20;;;1.10;;
42132;SDS011;70517;48.192;16.278;2023-08-06T15:23:01;0.60;;;0.60;;
42132;SDS011;70517;48.192;16.278;2023-08-06T15:29:01;0.50;;;0.43;;
42132;SDS011;70517;48.192;16.278;2023-08-06T15:35:02;1.50;;;1.27;;
42132;SDS011;70517;48.192;16.278;2023-08-06T15:38:04;0.75;;;0.43;;
42132;SDS011;70517;48.192;16.278;2023-08-06T15:41:04;0.43;;;0.30;;
42132;SDS011;70517;48.192;16.278;2023-08-06T15:44:04;0.20;;;0.20;;
42132;SDS011;70517;48.192;16.278;2023-08-06T15:47:04;1.10;;;0.47;;
42132;SDS011;70517;48.192;16.278;2023-08-06T15:50:06;1.27;;;0.98;;
42132;SDS011;70517;48.192;16.278;2023-08-06T15:53:06;2.25;;;0.90;;
42132;SDS011;70517;48.192;16.278;2023-08-06T15:56:08;0.52;;;0.30;;
42132;SDS011;70517;48.192;16.278;2023-08-06T16:02:27;1.48;;;0.20;;
42132;SDS011;70517;48.192;16.278;2023-08-06T16:05:27;0.20;;;0.15;;
42132;SDS011;70517;48.192;16.278;2023-08-06T16:08:28;0.57;;;0.30;;
42132;SDS011;70517;48.192;16.278;2023-08-06T16:11:28;0.57;;;0.40;;
42132;SDS011;70517;48.192;16.278;2023-08-06T16:14:29;1.27;;;0.40;;
42132;SDS011;70517;48.192;16.278;2023-08-06T16:20:29;0.93;;;0.82;;
42132;SDS011;70517;48.192;16.278;2023-08-06T16:26:30;0.32;;;0.32;;
42132;SDS011;70517;48.192;16.278;2023-08-06T16:32:31;0.30;;;0.30;;
42132;SDS011;70517;48.192;16.278;2023-08-06T16:38:31;0.47;;;0.22;;
42132;SDS011;70517;48.192;16.278;2023-08-06T16:44:31;1.02;;;0.20;;
42132;SDS011;70517;48.192;16.278;2023-08-06T16:50:32;0.27;;;0.20;;
42132;SDS011;70517;48.192;16.278;2023-08-06T16:53:32;0.47;;;0.40;;
42132;SDS011;70517;48.192;16.278;2023-08-06T16:59:33;0.50;;;0.25;;
42132;SDS011;70517;48.192;16.278;2023-08-06T17:05:33;0.30;;;0.20;;
42132;SDS011;70517;48.192;16.278;2023-08-06T17:08:33;0.30;;;0.30;;
42132;SDS011;70517;48.192;16.278;2023-08-06T17:11:36;0.73;;;0.30;;
42132;SDS011;70517;48.192;16.278;2023-08-06T17:14:36;0.10;;;0.10;;
42132;SDS011;70517;48.192;16.278;2023-08-06T17:17:37;0.50;;;0.33;;
42132;SDS011;70517;48.192;16.278;2023-08-06T17:20:37;1.27;;;1.17;;
42132;SDS011;70517;48.192;16.278;2023-08-06T17:23:40;1.27;;;0.98;;
42132;SDS011;70517;48.192;16.278;2023-08-06T17:26:40;0.40;;;0.40;;
42132;SDS011;70517;48.192;16.278;2023-08-06T17:29:41;1.03;;;0.27;;
42132;SDS011;70517;48.192;16.278;2023-08-06T17:32:41;0.20;;;0.20;;
42132;SDS011;70517;48.192;16.278;2023-08-06T17:38:42;2.38;;;1.00;;
42132;SDS011;70517;48.192;16.278;2023-08-06T17:41:42;1.47;;;0.90;;
42132;SDS011;70517;48.192;16.278;2023-08-06T17:44:42;0.73;;;0.40;;
42132;SDS011;70517;48.192;16.278;2023-08-06T17:47:43;0.30;;;0.27;;
42132;SDS011;70517;48.192;16.278;2023-08-06T17:50:44;0.20;;;0.20;;
42132;SDS011;70517;48.192;16.278;2023-08-06T17:53:44;1.48;;;0.20;;
42132;SDS011;70517;48.192;16.278;2023-08-06T17:56:44;0.30;;;0.10;;
42132;SDS011;70517;48.192;16.278;2023-08-06T17:59:45;0.97;;;0.50;;
42132;SDS011;70517;48.192;16.278;2023-08-06T18:02:45;1.33;;;1.07;;
42132;SDS011;70517;48.192;16.278;2023-08-06T18:05:45;0.77;;;0.77;;
42132;SDS011;70517;48.192;16.278;2023-08-06T18:08:45;0.30;;;0.27;;
42132;SDS011;70517;48.192;16.278;2023-08-06T18:11:46;0.20;;;0.20;;
42132;SDS011;70517;48.192;16.278;2023-08-06T18:14:46;0.10;;;0.10;;
42132;SDS011;70517;48.192;16.278;2023-08-06T18:17:46;1.27;;;0.10;;
42132;SDS011;70517;48.192;16.278;2023-08-06T18:20:47;0.20;;;0.10;;
42132;SDS011;70517;48.192;16.278;2023-08-06T18:23:47;1.43;;;0.20;;
42132;SDS011;70517;48.192;16.278;2023-08-06T18:26:47;0.20;;;0.20;;
42132;SDS011;70517;48.192;16.278;2023-08-06T18:29:47;0.10;;;0.10;;
42132;SDS011;70517;48.192;16.278;2023-08-06T18:32:48;0.23;;;0.20;;
42132;SDS011;70517;48.192;16.278;2023-08-06T18:35:48;0.10;;;0.10;;
42132;SDS011;70517;48.192;16.278;2023-08-06T18:38:48;0.22;;;0.10;;
42132;SDS011;70517;48.192;16.278;2023-08-06T18:41:50;0.20;;;0.20;;
42132;SDS011;70517;48.192;16.278;2023-08-06T18:44:51;1.70;;;1.27;;
42132;SDS011;70517;48.192;16.278;2023-08-06T18:47:51;1.50;;;1.30;;
42132;SDS011;70517;48.192;16.278;2023-08-06T18:50:51;0.77;;;0.50;;
42132;SDS011;70517;48.192;16.278;2023-08-06T18:53:53;0.20;;;0.20;;
42132;SDS011;70517;48.192;16.278;2023-08-06T18:56:53;0.20;;;0.20;;
42132;SDS011;70517;48.192;16.278;2023-08-06T18:59:53;0.10;;;0.10;;
42132;SDS011;70517;48.192;16.278;2023-08-06T19:02:53;0.20;;;0.10;;
42132;SDS011;70517;48.192;16.278;2023-08-06T19:05:57;0.10;;;0.10;;
42132;SDS011;70517;48.192;16.278;2023-08-06T19:08:57;1.05;;;0.95;;
42132;SDS011;70517;48.192;16.278;2023-08-06T19:11:57;0.77;;;0.47;;
42132;SDS011;70517;48.192;16.278;2023-08-06T19:14:58;0.80;;;0.50;;
42132;SDS011;70517;48.192;16.278;2023-08-06T19:17:58;1.13;;;0.30;;
42132;SDS011;70517;48.192;16.278;2023-08-06T19:20:58;0.30;;;0.17;;
42132;SDS011;70517;48.192;16.278;2023-08-06T19:23:58;0.20;;;0.10;;
42132;SDS011;70517;48.192;16.278;2023-08-06T19:26:59;0.43;;;0.20;;
42132;SDS011;70517;48.192;16.278;2023-08-06T19:30:00;0.83;;;0.23;;
42132;SDS011;70517;48.192;16.278;2023-08-06T19:33:00;1.37;;;0.80;;
42132;SDS011;70517;48.192;16.278;2023-08-06T19:36:00;1.10;;;0.90;;
42132;SDS011;70517;48.192;16.278;2023-08-06T19:39:00;0.70;;;0.57;;
42132;SDS011;70517;48.192;16.278;2023-08-06T19:42:01;0.80;;;0.40;;
42132;SDS011;70517;48.192;16.278;2023-08-06T19:45:01;0.43;;;0.30;;
42132;SDS011;70517;48.192;16.278;2023-08-06T19:48:01;3.83;;;0.97;;